ローマ/フィウミチーノ の空港の天気 - METARとTAF

ローマ・レオナルド・ダ・ビンチ国際空港 ( LIRF / FCO ) - イタリア ローマ
飛行場実況気象(Metar)
観測時間11/27 08:20 CET (11/27 07:20 UTC)
風向・風速北北東 4m/s
視程10km以上
天気現象
なし
気温10℃
湿度66%
気圧1021hPa
METARLIRF 270720Z 02008KT CAVOK 10/04 Q1021 NOSIG
過去の天気等 Google飛行場航空写真 Wunderground天気予報

過去48時間のMETAR

飛行場予報(TAF)
発表時間: 11/27 06:00 CET (11/27 05:00 UTC)
予報対象時間: 27日7時 CET ~ 28日13時 CET
風向・風速北北東 8m/s
視程10km以上
少しの雲 雲底高度 910m
27日19時 CET ~ 27日21時 CET に徐々に
風向・風速北東 3m/s
TAF LIRF 270500Z 2706/2812 03015KT 9999 FEW030
BECMG 2718/2720 04005KT